Time;durP1;ratioP1;P1;durP2;ratioP2;P2;SDS_P1;SDS_P2;PMS_P1;PMS_P2;Temp;Humidity;BMP_temperature;BMP_pressure;BME280_temperature;BME280_humidity;BME280_pressure;Samples;Min_cycle;Max_cycle;Signal;HPM_P1;HPM_P2
2021/01/25 00:00:08;;;;;;;21.07;12.27;;;;;;;0.44;100.00;98658.19;4982462;28;20737;-29
2021/01/25 00:02:56;;;;;;;18.73;11.87;;;;;;;0.40;100.00;98657.31;4980709;28;20497;-27
2021/01/25 00:05:42;;;;;;;22.57;11.73;;;;;;;0.34;100.00;98650.53;4981398;28;20549;-27
2021/01/25 00:08:29;;;;;;;20.37;12.50;;;;;;;0.44;100.00;98661.56;4983017;28;20599;-29
2021/01/25 00:11:15;;;;;;;16.60;11.50;;;;;;;0.47;100.00;98659.06;4982202;28;20452;-28
2021/01/25 00:14:02;;;;;;;14.57;11.03;;;;;;;0.38;100.00;98655.63;4982673;28;20523;-29
2021/01/25 00:16:48;;;;;;;19.20;11.67;;;;;;;0.47;100.00;98653.13;4981288;28;20439;-28
2021/01/25 00:19:38;;;;;;;18.23;12.60;;;;;;;0.46;100.00;98653.97;4980667;28;20737;-28
2021/01/25 00:22:25;;;;;;;17.27;13.57;;;;;;;0.39;100.00;98652.25;4982371;28;20788;-28
2021/01/25 00:25:12;;;;;;;23.93;13.70;;;;;;;0.43;100.00;98653.94;4982660;28;20442;-28
2021/01/25 00:27:58;;;;;;;21.93;14.13;;;;;;;0.37;100.00;98648.84;4982064;28;20903;-29
2021/01/25 00:30:45;;;;;;;22.10;14.50;;;;;;;0.35;100.00;98648.81;4984711;28;20531;-27
2021/01/25 00:33:32;;;;;;;27.30;19.97;;;;;;;0.32;100.00;98641.19;4984545;28;20462;-27
2021/01/25 00:36:19;;;;;;;18.70;12.40;;;;;;;0.38;100.00;98642.91;4985678;28;20454;-27
2021/01/25 00:39:06;;;;;;;15.83;11.37;;;;;;;0.30;100.00;98646.25;4983979;28;20466;-27
2021/01/25 00:41:54;;;;;;;18.33;11.93;;;;;;;0.32;100.00;98636.09;4985212;28;20454;-27
2021/01/25 00:44:41;;;;;;;16.73;10.67;;;;;;;0.46;100.00;98636.16;4986748;28;20453;-27
2021/01/25 00:47:28;;;;;;;23.27;14.57;;;;;;;0.42;100.00;98639.53;4984980;28;20581;-27
2021/01/25 00:50:17;;;;;;;18.47;13.47;;;;;;;0.53;100.00;98640.44;4984422;28;20446;-27
2021/01/25 00:53:04;;;;;;;19.67;11.93;;;;;;;0.50;100.00;98640.41;4983997;28;20446;-27
2021/01/25 00:55:51;;;;;;;19.30;13.43;;;;;;;0.55;100.00;98639.59;4986661;28;20888;-27
2021/01/25 00:58:38;;;;;;;19.27;12.30;;;;;;;0.59;100.00;98631.16;4984511;28;20450;-27
2021/01/25 01:01:24;;;;;;;20.87;14.00;;;;;;;0.82;100.00;98630.38;4985481;28;20518;-27
2021/01/25 01:04:11;;;;;;;18.13;12.23;;;;;;;0.81;100.00;98629.50;4984475;28;20502;-27
2021/01/25 01:06:57;;;;;;;23.40;13.43;;;;;;;0.64;100.00;98631.16;4983577;28;20473;-27
2021/01/25 01:09:45;;;;;;;24.90;14.60;;;;;;;0.57;100.00;98637.06;4984178;28;20473;-27
2021/01/25 01:12:31;;;;;;;24.23;15.17;;;;;;;0.59;100.00;98635.38;4990119;28;20502;-27
2021/01/25 01:15:17;;;;;;;20.67;13.13;;;;;;;0.60;100.00;98630.28;4983249;28;20533;-27
2021/01/25 01:18:03;;;;;;;18.57;13.33;;;;;;;0.87;100.00;98633.78;4984300;28;20462;-27
2021/01/25 01:20:51;;;;;;;20.23;12.70;;;;;;;0.68;100.00;98635.41;4987564;28;20549;-27
2021/01/25 01:23:37;;;;;;;18.40;13.17;;;;;;;1.02;100.00;98633.81;4982860;28;20450;-27
2021/01/25 01:26:24;;;;;;;21.70;14.33;;;;;;;1.14;100.00;98628.78;4982670;28;20494;-27
2021/01/25 01:29:12;;;;;;;18.77;13.37;;;;;;;0.95;100.00;98630.44;4983199;28;20451;-28
2021/01/25 01:31:58;;;;;;;23.80;13.73;;;;;;;0.81;100.00;98641.38;4983764;28;20442;-28
2021/01/25 01:34:45;;;;;;;20.83;13.43;;;;;;;0.48;100.00;98640.41;4982076;28;20454;-28
2021/01/25 01:37:32;;;;;;;19.67;12.63;;;;;;;0.52;100.00;98636.19;4984609;28;20514;-28
2021/01/25 01:40:18;;;;;;;19.83;13.27;;;;;;;0.21;100.00;98638.56;4980893;28;20737;-29
2021/01/25 01:43:05;;;;;;;22.50;12.67;;;;;;;0.11;100.00;98630.88;4981727;28;20538;-29
2021/01/25 01:45:52;;;;;;;21.00;13.87;;;;;;;0.14;100.00;98641.94;4983713;28;20471;-29
2021/01/25 01:48:38;;;;;;;24.70;15.50;;;;;;;0.21;100.00;98640.25;4982856;28;20772;-29
2021/01/25 01:51:24;;;;;;;21.43;14.33;;;;;;;0.21;100.00;98641.09;4982789;28;20513;-29
2021/01/25 01:54:10;;;;;;;22.07;13.17;;;;;;;0.13;100.00;98640.22;4986277;28;20427;-28
2021/01/25 01:56:57;;;;;;;19.13;11.67;;;;;;;0.11;100.00;98631.72;4981737;28;20447;-29
2021/01/25 01:59:44;;;;;;;23.60;14.17;;;;;;;0.16;100.00;98636.84;4981713;28;20465;-29
2021/01/25 02:02:31;;;;;;;21.40;12.63;;;;;;;0.20;100.00;98638.59;4981583;28;20447;-28
2021/01/25 02:05:18;;;;;;;18.87;12.63;;;;;;;0.21;100.00;98633.47;4983205;28;20451;-29
2021/01/25 02:08:06;;;;;;;19.80;13.03;;;;;;;0.20;100.00;98636.03;4983564;28;20486;-29
2021/01/25 02:10:55;;;;;;;19.77;12.83;;;;;;;0.19;100.00;98639.41;4943654;29;20731;-28
2021/01/25 02:13:42;;;;;;;22.73;12.83;;;;;;;0.16;100.00;98639.41;4942831;29;20452;-29
2021/01/25 02:16:30;;;;;;;20.23;13.23;;;;;;;0.16;100.00;98640.25;4942700;29;20555;-28
2021/01/25 02:19:34;;;;;;;20.73;13.63;;;;;;;0.15;100.00;98636.00;4943086;29;20456;-28
2021/01/25 02:23:00;;;;;;;27.20;17.73;;;;;;;0.21;100.00;98638.56;4947053;29;20476;-29
2021/01/25 02:25:52;;;;;;;19.70;12.73;;;;;;;0.19;100.00;98634.34;4945881;29;20532;-29
2021/01/25 02:28:40;;;;;;;20.47;13.83;;;;;;;0.17;100.00;98628.38;4943501;29;20491;-29
2021/01/25 02:31:28;;;;;;;21.23;13.70;;;;;;;0.22;100.00;98621.63;4942649;29;20882;-29
2021/01/25 02:34:16;;;;;;;20.07;12.87;;;;;;;0.08;100.00;98633.41;4942710;29;20440;-29
2021/01/25 02:37:04;;;;;;;16.80;12.47;;;;;;;-0.01;100.00;98637.59;4942377;29;20453;-29
2021/01/25 02:39:52;;;;;;;21.30;13.10;;;;;;;-0.06;100.00;98638.41;4945157;29;20506;-28
2021/01/25 02:42:40;;;;;;;23.77;13.63;;;;;;;-0.07;100.00;98632.47;4944694;29;20452;-29
2021/01/25 02:45:28;;;;;;;22.30;14.10;;;;;;;-0.07;100.00;98632.47;4944994;29;20886;-29
2021/01/25 02:48:15;;;;;;;16.60;12.27;;;;;;;-0.08;100.00;98628.22;4947336;29;20621;-28
2021/01/25 02:51:02;;;;;;;20.03;13.37;;;;;;;-0.03;100.00;98633.34;4941840;29;20472;-29
2021/01/25 02:53:49;;;;;;;21.73;13.17;;;;;;;-0.10;100.00;98636.69;4942538;29;20464;-29
2021/01/25 02:56:36;;;;;;;19.83;14.33;;;;;;;-0.13;100.00;98639.19;4945117;29;20445;-28
2021/01/25 02:59:22;;;;;;;24.63;14.50;;;;;;;-0.14;100.00;98640.03;4943352;29;20881;-29
2021/01/25 03:02:11;;;;;;;24.27;15.27;;;;;;;-0.14;100.00;98640.03;4945680;29;20517;-28
2021/01/25 03:05:00;;;;;;;22.07;14.73;;;;;;;-0.14;100.00;98637.47;4942128;29;20528;-28
2021/01/25 03:07:46;;;;;;;23.30;15.50;;;;;;;-0.17;100.00;98643.38;4943191;29;20792;-28
2021/01/25 03:10:32;;;;;;;23.53;14.80;;;;;;;-0.18;100.00;98644.22;4978071;28;20486;-28
2021/01/25 03:13:25;;;;;;;24.57;15.33;;;;;;;-0.19;100.00;98646.75;4982361;28;20451;-28
2021/01/25 03:16:15;;;;;;;23.00;15.27;;;;;;;-0.16;100.00;98645.09;4982144;28;20451;-28
2021/01/25 03:19:03;;;;;;;20.47;14.27;;;;;;;-0.11;100.00;98647.66;4980241;28;20549;-28
2021/01/25 03:21:52;;;;;;;28.43;17.10;;;;;;;-0.18;100.00;98646.75;4980023;28;20451;-28
2021/01/25 03:24:39;;;;;;;24.43;16.47;;;;;;;-0.08;100.00;98642.63;4979979;28;20447;-28
2021/01/25 03:27:27;;;;;;;27.43;17.07;;;;;;;-0.08;100.00;98648.56;4982774;28;20758;-28
2021/01/25 03:30:14;;;;;;;27.93;18.13;;;;;;;-0.22;100.00;98652.69;4982450;28;20517;-28
2021/01/25 03:33:01;;;;;;;26.23;16.20;;;;;;;-0.20;100.00;98648.44;4981121;28;20542;-28
2021/01/25 03:35:49;;;;;;;27.27;18.00;;;;;;;-0.22;100.00;98646.75;4986580;28;20454;-28
2021/01/25 03:38:35;;;;;;;25.57;18.07;;;;;;;-0.18;100.00;98658.63;4980266;28;20459;-28
2021/01/25 03:41:21;;;;;;;36.73;20.97;;;;;;;-0.14;100.00;98657.81;4979688;28;20442;-28
2021/01/25 03:44:08;;;;;;;27.10;17.87;;;;;;;-0.14;100.00;98660.34;4981885;28;20461;-28
2021/01/25 03:46:54;;;;;;;24.80;16.40;;;;;;;-0.15;100.00;98668.81;4979569;28;20450;-28
2021/01/25 03:49:40;;;;;;;28.77;16.13;;;;;;;-0.15;100.00;98663.72;4982158;28;20607;-28
2021/01/25 03:52:28;;;;;;;25.67;15.23;;;;;;;-0.09;100.00;98671.41;4982624;28;20450;-28
2021/01/25 03:55:14;;;;;;;27.23;16.20;;;;;;;-0.13;100.00;98668.00;4965244;28;20590;-29
2021/01/25 03:58:00;;;;;;;26.57;16.13;;;;;;;-0.08;100.00;98668.03;4979993;28;20647;-28
2021/01/25 04:00:48;;;;;;;24.00;15.67;;;;;;;-0.10;100.00;98669.69;4983632;28;20454;-28
2021/01/25 04:03:34;;;;;;;27.27;17.63;;;;;;;-0.08;100.00;98675.66;4981418;28;21010;-28
2021/01/25 04:06:20;;;;;;;25.87;16.60;;;;;;;-0.08;100.00;98679.03;4984476;28;20537;-28
2021/01/25 04:09:07;;;;;;;27.53;17.40;;;;;;;-0.07;100.00;98674.81;4983757;28;20553;-28
2021/01/25 04:11:53;;;;;;;22.07;16.20;;;;;;;-0.05;100.00;98683.31;4983764;28;20602;-28
2021/01/25 04:14:40;;;;;;;43.13;23.13;;;;;;;-0.02;100.00;98681.63;4986830;28;20462;-28
2021/01/25 04:17:26;;;;;;;26.57;16.43;;;;;;;-0.02;100.00;98685.88;4984497;28;20447;-28
2021/01/25 04:20:19;;;;;;;27.97;16.63;;;;;;;0.02;100.00;98681.63;4984461;28;20470;-28
2021/01/25 04:23:06;;;;;;;22.23;16.03;;;;;;;-0.03;100.00;98679.94;4985627;28;20892;-28
2021/01/25 04:25:53;;;;;;;28.90;17.50;;;;;;;-0.03;100.00;98674.84;4985832;28;20567;-28
2021/01/25 04:28:39;;;;;;;27.13;16.80;;;;;;;-0.04;100.00;98677.38;4985968;28;20502;-28
2021/01/25 04:31:25;;;;;;;26.07;16.63;;;;;;;-0.03;100.00;98679.94;4984065;28;20740;-28
2021/01/25 04:34:12;;;;;;;25.23;16.93;;;;;;;-0.02;100.00;98674.03;4988269;28;20783;-28
2021/01/25 04:36:58;;;;;;;23.97;16.67;;;;;;;0.01;100.00;98670.63;4984725;28;20736;-28
2021/01/25 04:39:44;;;;;;;22.83;15.93;;;;;;;0.04;100.00;98675.72;4984352;28;20466;-28
2021/01/25 04:42:31;;;;;;;24.43;15.97;;;;;;;0.03;100.00;98678.25;4985557;28;20887;-28
2021/01/25 04:45:17;;;;;;;24.83;15.43;;;;;;;0.01;100.00;98680.78;4984092;28;20602;-28
2021/01/25 04:48:04;;;;;;;24.83;16.80;;;;;;;0.05;100.00;98687.59;4984068;28;20489;-28
2021/01/25 04:50:51;;;;;;;22.70;15.30;;;;;;;0.06;100.00;98694.38;4989890;28;20542;-28
2021/01/25 04:53:38;;;;;;;24.77;16.00;;;;;;;0.06;100.00;98694.38;4984304;28;20449;-28
2021/01/25 04:56:26;;;;;;;27.20;15.77;;;;;;;0.00;100.00;98702.81;4983879;28;20470;-28
2021/01/25 04:59:13;;;;;;;23.83;14.83;;;;;;;-0.03;100.00;98699.41;4982509;28;20876;-28
2021/01/25 05:01:59;;;;;;;23.33;15.67;;;;;;;0.03;100.00;98698.59;4984677;28;20451;-28
2021/01/25 05:04:50;;;;;;;23.07;16.33;;;;;;;-0.02;100.00;98706.19;4982752;28;20590;-28
2021/01/25 05:07:38;;;;;;;25.63;15.80;;;;;;;-0.11;100.00;98706.97;4986695;28;20567;-28
2021/01/25 05:10:27;;;;;;;25.40;16.10;;;;;;;-0.10;100.00;98705.28;4982355;28;20482;-28
2021/01/25 05:13:21;;;;;;;25.60;16.77;;;;;;;-0.11;100.00;98708.66;4984457;28;20446;-28
2021/01/25 05:16:17;;;;;;;23.30;15.37;;;;;;;-0.14;100.00;98706.09;4982727;28;20474;-28
2021/01/25 05:19:05;;;;;;;27.63;16.50;;;;;;;-0.16;100.00;98708.59;4983488;28;20594;-28
2021/01/25 05:21:52;;;;;;;25.10;15.87;;;;;;;-0.15;100.00;98712.00;4982850;28;20567;-28
2021/01/25 05:24:46;;;;;;;25.87;16.77;;;;;;;-0.11;100.00;98716.28;4988188;28;20783;-28
2021/01/25 05:27:32;;;;;;;24.70;15.73;;;;;;;-0.14;100.00;98717.09;4984753;28;20481;-28
2021/01/25 05:30:19;;;;;;;24.23;16.43;;;;;;;-0.10;100.00;98723.91;4983678;28;20446;-28
2021/01/25 05:33:07;;;;;;;25.23;16.37;;;;;;;-0.13;100.00;98717.94;4986927;28;20446;-28
2021/01/25 05:35:55;;;;;;;23.57;16.33;;;;;;;-0.08;100.00;98729.00;4983081;28;20450;-28
2021/01/25 05:38:42;;;;;;;25.23;16.33;;;;;;;-0.13;100.00;98733.19;4982435;28;20719;-28
2021/01/25 05:41:28;;;;;;;24.27;15.37;;;;;;;-0.13;100.00;98723.03;4983268;28;20442;-28
2021/01/25 05:44:14;;;;;;;22.63;15.47;;;;;;;-0.16;100.00;98728.94;4985750;28;20446;-28
2021/01/25 05:47:06;;;;;;;22.30;14.77;;;;;;;-0.12;100.00;98733.22;4983706;28;20442;-27
2021/01/25 05:49:53;;;;;;;22.53;14.50;;;;;;;-0.15;100.00;98738.25;4984101;28;20842;-27
2021/01/25 05:52:43;;;;;;;21.53;14.87;;;;;;;-0.12;100.00;98740.84;4982486;28;20455;-28
2021/01/25 05:55:30;;;;;;;21.67;14.93;;;;;;;-0.11;100.00;98742.53;4982876;28;20498;-28
2021/01/25 05:58:16;;;;;;;23.37;13.73;;;;;;;-0.08;100.00;98747.66;4981229;28;21004;-28
2021/01/25 06:01:03;;;;;;;24.40;15.73;;;;;;;0.17;100.00;98751.25;4969578;28;20591;-28
2021/01/25 06:03:50;;;;;;;23.07;14.13;;;;;;;-0.05;100.00;98751.91;4983159;28;20904;-28
2021/01/25 06:06:37;;;;;;;23.13;15.57;;;;;;;-0.10;100.00;98749.31;4983303;28;20896;-28
2021/01/25 06:09:27;;;;;;;24.27;14.77;;;;;;;-0.08;100.00;98756.97;4984709;28;20489;-28
2021/01/25 06:12:15;;;;;;;22.63;15.43;;;;;;;-0.12;100.00;98755.22;4980070;28;20447;-28
2021/01/25 06:15:04;;;;;;;23.40;15.00;;;;;;;-0.12;100.00;98760.31;4981756;28;20447;-27
2021/01/25 06:17:51;;;;;;;23.93;15.60;;;;;;;-0.16;100.00;98759.41;4984100;28;20446;-27
2021/01/25 06:20:38;;;;;;;22.13;14.20;;;;;;;-0.17;100.00;98757.72;4982328;28;20451;-27
2021/01/25 06:23:27;;;;;;;23.97;15.43;;;;;;;-0.16;100.00;98769.59;4981330;28;20447;-28
2021/01/25 06:26:14;;;;;;;21.47;13.90;;;;;;;-0.17;100.00;98765.34;4981495;28;20713;-28
2021/01/25 06:29:03;;;;;;;23.87;15.40;;;;;;;-0.17;100.00;98769.56;4980304;28;20482;-27
2021/01/25 06:31:54;;;;;;;21.73;14.13;;;;;;;-0.09;100.00;98770.50;4980994;28;20443;-27
2021/01/25 06:34:41;;;;;;;22.17;15.13;;;;;;;-0.13;100.00;98776.38;4982794;28;20443;-27
2021/01/25 06:37:28;;;;;;;23.67;15.27;;;;;;;-0.17;100.00;98774.66;4982201;28;20451;-27
2021/01/25 06:40:24;;;;;;;24.43;14.67;;;;;;;-0.13;100.00;98784.00;4984360;28;20446;-28
2021/01/25 06:43:13;;;;;;;20.43;14.43;;;;;;;-0.13;100.00;98781.47;4981301;28;20451;-28
2021/01/25 06:46:02;;;;;;;24.33;15.10;;;;;;;-0.11;100.00;98787.41;4980768;28;20455;-28
2021/01/25 06:48:50;;;;;;;20.20;14.53;;;;;;;-0.10;100.00;98789.13;4981688;28;20629;-28
2021/01/25 06:51:40;;;;;;;19.63;14.93;;;;;;;-0.15;100.00;98790.75;4986290;28;20451;-28
2021/01/25 06:54:27;;;;;;;21.43;14.60;;;;;;;-0.14;100.00;98789.94;4982837;28;20446;-28
2021/01/25 06:57:26;;;;;;;28.20;16.47;;;;;;;-0.14;100.00;98797.53;4981149;28;20440;-28
2021/01/25 07:00:14;;;;;;;22.60;14.63;;;;;;;-0.22;100.00;98794.94;4980564;28;20449;-28
2021/01/25 07:03:03;;;;;;;24.27;16.77;;;;;;;-0.20;100.00;98800.06;4981149;28;20520;-27
2021/01/25 07:05:51;;;;;;;26.97;17.20;;;;;;;-0.18;100.00;98806.81;4981025;28;20549;-30
2021/01/25 07:08:38;;;;;;;26.03;18.00;;;;;;;-0.28;100.00;98811.81;4980135;28;20887;-29
2021/01/25 07:11:26;;;;;;;28.70;17.13;;;;;;;-0.26;100.00;98813.53;4962573;28;20459;-29
2021/01/25 07:14:17;;;;;;;26.13;16.90;;;;;;;-0.23;100.00;98822.88;4961329;29;20455;-29
2021/01/25 07:17:04;;;;;;;25.93;16.33;;;;;;;-0.21;100.00;98821.22;4961141;29;20446;-29
2021/01/25 07:19:50;;;;;;;25.17;16.03;;;;;;;-0.30;100.00;98821.09;4960679;29;20457;-28
2021/01/25 07:22:37;;;;;;;21.93;15.30;;;;;;;-0.23;100.00;98822.88;4960678;29;20471;-28
2021/01/25 07:25:23;;;;;;;23.37;16.47;;;;;;;-0.21;100.00;98836.44;4960528;29;20447;-28
2021/01/25 07:28:10;;;;;;;21.43;15.33;;;;;;;-0.19;100.00;98839.84;4959741;29;20486;-29
2021/01/25 07:30:58;;;;;;;20.77;14.87;;;;;;;-0.18;100.00;98847.47;4960772;29;20499;-27
2021/01/25 07:33:44;;;;;;;26.30;15.23;;;;;;;-0.14;100.00;98844.13;4959695;29;20727;-29
2021/01/25 07:36:32;;;;;;;28.63;17.30;;;;;;;-0.06;100.00;98854.38;4959871;29;20451;-30
2021/01/25 07:39:20;;;;;;;24.83;16.87;;;;;;;0.22;100.00;98853.81;4959368;28;20459;-29
2021/01/25 07:42:10;;;;;;;23.67;16.80;;;;;;;0.68;100.00;98860.16;4961964;29;20446;-30
2021/01/25 07:44:57;;;;;;;29.20;17.73;;;;;;;1.06;100.00;98862.09;4961295;29;20447;-28
2021/01/25 07:47:47;;;;;;;25.67;16.63;;;;;;;0.84;100.00;98866.19;4967279;29;20483;-28
2021/01/25 07:50:33;;;;;;;28.27;17.77;;;;;;;0.51;100.00;98871.88;4964225;29;20740;-30
2021/01/25 07:53:19;;;;;;;28.93;18.17;;;;;;;0.85;100.00;98870.44;4961284;29;20451;-28
2021/01/25 07:56:06;;;;;;;30.73;18.00;;;;;;;1.07;100.00;98868.91;4960398;29;20539;-30
2021/01/25 07:59:05;;;;;;;27.60;17.37;;;;;;;1.24;100.00;98879.19;4960507;29;20459;-28
2021/01/25 08:01:56;;;;;;;28.00;17.93;;;;;;;1.42;100.00;98884.38;4959821;29;20451;-28
2021/01/25 08:04:46;;;;;;;25.20;18.13;;;;;;;1.46;100.00;98887.81;4964977;29;20452;-27
2021/01/25 08:07:32;;;;;;;26.90;18.20;;;;;;;1.57;100.00;98887.03;4959919;29;20542;-28
2021/01/25 08:10:21;;;;;;;25.93;17.03;;;;;;;0.91;100.00;98897.66;4960757;29;20520;-30
2021/01/25 08:13:17;;;;;;;46.57;25.33;;;;;;;0.54;100.00;98892.25;4962465;29;20620;-28
2021/01/25 08:16:13;;;;;;;39.33;20.60;;;;;;;0.46;100.00;98908.28;4977257;28;20451;-28
2021/01/25 08:19:06;;;;;;;22.77;15.80;;;;;;;0.43;100.00;98909.09;4981085;28;20563;-29
2021/01/25 08:22:02;;;;;;;25.13;16.03;;;;;;;0.47;100.00;98910.84;4981442;28;20728;-28
2021/01/25 08:25:01;;;;;;;24.57;17.40;;;;;;;0.62;100.00;98910.13;4980931;28;20534;-28
2021/01/25 08:27:59;;;;;;;25.73;17.73;;;;;;;1.26;100.00;98919.09;4980579;28;20545;-28
2021/01/25 08:30:47;;;;;;;24.57;16.93;;;;;;;1.33;100.00;98937.84;4980161;28;20447;-28
2021/01/25 08:33:36;;;;;;;27.37;16.70;;;;;;;0.97;100.00;98939.28;4979165;28;20458;-28
2021/01/25 08:36:38;;;;;;;24.80;16.63;;;;;;;1.21;100.00;98943.69;4979019;28;20458;-28
2021/01/25 08:39:34;;;;;;;21.73;15.63;;;;;;;1.82;100.00;98958.47;4979104;28;20199;-28
2021/01/25 08:42:34;;;;;;;24.67;17.10;;;;;;;2.91;100.00;98957.94;4978675;28;20211;-29
2021/01/25 08:45:25;;;;;;;25.93;16.80;;;;;;;3.66;100.00;98959.56;4978455;28;20199;-28
2021/01/25 08:48:12;;;;;;;23.00;15.97;;;;;;;3.80;100.00;98964.63;4978534;28;20227;-29
2021/01/25 08:51:09;;;;;;;25.80;17.13;;;;;;;3.74;100.00;98969.78;4981606;28;20203;-29
2021/01/25 08:54:06;;;;;;;23.23;16.43;;;;;;;3.78;100.00;98967.22;4983195;28;20215;-29
2021/01/25 08:56:52;;;;;;;21.37;15.83;;;;;;;3.75;100.00;98972.34;4983442;28;20494;-29
2021/01/25 08:59:38;;;;;;;20.00;15.73;;;;;;;3.55;100.00;98975.81;4983034;28;20684;-29
2021/01/25 09:02:25;;;;;;;22.13;14.70;;;;;;;2.89;100.00;98980.06;4982850;28;20207;-29
2021/01/25 09:05:13;;;;;;;18.17;14.33;;;;;;;2.08;100.00;98974.75;4982318;28;20199;-29
2021/01/25 09:08:00;;;;;;;19.40;14.83;;;;;;;3.10;100.00;98977.53;4981821;28;20282;-29
2021/01/25 09:10:49;;;;;;;20.23;14.93;;;;;;;2.80;100.00;98986.00;4982903;28;20289;-29
2021/01/25 09:13:39;;;;;;;22.87;14.63;;;;;;;2.48;100.00;98982.53;4981991;28;20271;-29
2021/01/25 09:16:25;;;;;;;20.40;14.97;;;;;;;2.22;100.00;98988.41;4982694;28;20630;-30
2021/01/25 09:19:13;;;;;;;22.00;14.37;;;;;;;2.22;100.00;98995.19;4982921;28;20207;-29
2021/01/25 09:21:59;;;;;;;19.70;15.27;;;;;;;2.67;100.00;98994.50;4984491;28;20207;-29
2021/01/25 09:24:46;;;;;;;22.07;16.17;;;;;;;3.01;100.00;99000.50;4986294;28;20203;-29
2021/01/25 09:27:36;;;;;;;23.57;17.17;;;;;;;3.35;100.00;99004.78;4984499;28;20211;-29
2021/01/25 09:30:25;;;;;;;23.37;16.67;;;;;;;3.60;100.00;99010.72;4981529;28;20215;-29
2021/01/25 09:33:11;;;;;;;23.93;16.97;;;;;;;3.67;100.00;99012.41;4983981;28;20243;-29
2021/01/25 09:35:58;;;;;;;22.63;15.97;;;;;;;3.43;100.00;99012.44;4990291;28;20199;-29
2021/01/25 09:38:44;;;;;;;24.20;17.10;;;;;;;3.67;100.00;99016.69;4990868;28;20207;-29
2021/01/25 09:41:32;;;;;;;23.10;17.27;;;;;;;3.35;100.00;99022.69;4990045;28;20256;-29
2021/01/25 09:44:18;;;;;;;24.07;18.50;;;;;;;3.57;100.00;99022.66;4987235;28;20203;-29
2021/01/25 09:47:09;;;;;;;21.87;16.10;;;;;;;2.98;100.00;99032.03;4982240;28;20211;-29
2021/01/25 09:50:00;;;;;;;26.10;17.03;;;;;;;2.82;100.00;99043.03;4982010;28;20234;-29
2021/01/25 09:52:48;;;;;;;24.87;17.13;;;;;;;3.47;100.00;99040.56;4983018;28;20196;-30
2021/01/25 09:55:36;;;;;;;23.17;18.03;;;;;;;3.71;100.00;99041.41;4981008;28;20195;-29
2021/01/25 09:58:23;;;;;;;27.50;16.40;;;;;;;3.91;100.00;99047.34;4980088;28;20215;-29
2021/01/25 10:01:10;;;;;;;24.80;17.40;;;;;;;3.89;100.00;99055.84;4983380;28;20195;-29
2021/01/25 10:03:56;;;;;;;23.27;16.30;;;;;;;4.15;100.00;99064.34;4968613;28;20235;-29
2021/01/25 10:06:42;;;;;;;27.80;17.10;;;;;;;4.06;100.00;99069.47;4981052;28;20481;-29
2021/01/25 10:09:30;;;;;;;20.60;16.57;;;;;;;4.03;100.00;99066.91;4973000;28;20263;-29
2021/01/25 10:12:16;;;;;;;20.90;16.70;;;;;;;3.59;100.00;99072.09;4982368;28;20206;-29
2021/01/25 10:15:06;;;;;;;24.13;16.93;;;;;;;3.56;100.00;99064.41;4982983;28;20207;-29
2021/01/25 10:17:52;;;;;;;23.70;18.10;;;;;;;2.78;100.00;99069.44;4982992;28;20215;-29
2021/01/25 10:20:43;;;;;;;25.90;16.10;;;;;;;3.56;100.00;99069.53;4980457;28;20202;-30
2021/01/25 10:23:29;;;;;;;26.17;19.20;;;;;;;3.85;100.00;99066.94;4980985;28;20202;-29
2021/01/25 10:26:15;;;;;;;28.77;20.97;;;;;;;4.04;100.00;99077.13;4984069;28;20202;-30
2021/01/25 10:29:01;;;;;;;24.23;18.83;;;;;;;3.86;100.00;99077.16;4981115;28;20235;-30
2021/01/25 10:31:49;;;;;;;25.07;17.77;;;;;;;3.07;100.00;99074.59;4981959;28;20207;-29
2021/01/25 10:34:36;;;;;;;22.13;15.03;;;;;;;3.64;100.00;99085.72;4981548;28;20207;-30
2021/01/25 10:37:26;;;;;;;19.03;15.20;;;;;;;3.90;100.00;99088.25;4981407;28;20202;-30
2021/01/25 10:40:14;;;;;;;18.37;13.20;;;;;;;4.38;100.00;99097.56;4980903;28;20255;-30
2021/01/25 10:43:01;;;;;;;18.10;13.23;;;;;;;4.73;100.00;99092.28;4981349;28;20195;-30
2021/01/25 10:45:48;;;;;;;20.87;13.87;;;;;;;4.39;100.00;99096.69;4979725;28;20207;-31
2021/01/25 10:48:34;;;;;;;17.73;12.63;;;;;;;4.38;100.00;99098.41;4960797;29;20235;-30
2021/01/25 10:51:24;;;;;;;16.83;12.87;;;;;;;3.98;100.00;99107.03;4961283;29;20208;-30
2021/01/25 10:54:22;;;;;;;30.77;15.30;;;;;;;3.99;100.00;99106.16;4960410;29;20738;-31
2021/01/25 10:57:08;;;;;;;25.40;14.97;;;;;;;2.89;100.00;99113.72;4960356;29;20203;-30
2021/01/25 10:59:54;;;;;;;22.23;14.57;;;;;;;3.50;100.00;99116.38;4960128;29;20196;-30
2021/01/25 11:02:41;;;;;;;20.43;13.20;;;;;;;3.98;100.00;99119.81;4960301;29;20202;-30
2021/01/25 11:05:28;;;;;;;17.83;13.23;;;;;;;4.11;100.00;99130.03;4960133;29;20196;-31
2021/01/25 11:08:14;;;;;;;19.63;14.57;;;;;;;2.96;100.00;99125.66;4961235;29;20359;-29
2021/01/25 11:11:03;;;;;;;23.37;16.20;;;;;;;3.60;100.00;99132.56;4963122;29;20538;-30
2021/01/25 11:13:50;;;;;;;23.97;16.37;;;;;;;4.90;100.00;99133.19;4961220;28;20208;-30
2021/01/25 11:16:37;;;;;;;23.03;16.07;;;;;;;4.49;100.00;99136.75;4959864;29;20202;-31
2021/01/25 11:19:27;;;;;;;19.43;13.83;;;;;;;5.49;100.00;99136.28;4959517;29;20629;-30
2021/01/25 11:22:16;;;;;;;22.87;15.13;;;;;;;6.10;100.00;99133.28;4960275;29;20280;-30
2021/01/25 11:25:06;;;;;;;19.90;14.13;;;;;;;7.19;93.60;99154.28;4959561;29;20208;-30
2021/01/25 11:27:52;;;;;;;16.53;11.83;;;;;;;5.62;94.50;99151.59;4959716;29;20215;-31
2021/01/25 11:30:41;;;;;;;16.10;12.10;;;;;;;4.56;100.00;99155.53;4959706;29;20476;-31
2021/01/25 11:33:28;;;;;;;15.50;12.67;;;;;;;5.46;100.00;99146.56;4945666;29;20480;-30
2021/01/25 11:36:14;;;;;;;13.70;10.63;;;;;;;4.69;99.00;99159.75;4959558;29;20203;-30
2021/01/25 11:39:02;;;;;;;16.53;12.00;;;;;;;4.57;100.00;99160.66;4960251;29;20213;-30
2021/01/25 11:41:48;;;;;;;15.63;12.63;;;;;;;5.35;100.00;99152.63;4964769;28;20487;-30
2021/01/25 11:44:39;;;;;;;18.47;11.90;;;;;;;5.19;100.00;99157.00;4971833;28;20369;-31
2021/01/25 11:47:27;;;;;;;16.57;11.90;;;;;;;5.18;100.00;99168.97;4964603;28;20207;-30
2021/01/25 11:50:17;;;;;;;16.17;12.20;;;;;;;4.69;100.00;99168.28;4961338;28;20234;-30
2021/01/25 11:53:07;;;;;;;14.47;11.70;;;;;;;5.40;100.00;99169.66;4976954;28;20293;-30
2021/01/25 11:55:54;;;;;;;13.97;10.10;;;;;;;6.10;99.01;99161.50;4978564;28;20269;-30
2021/01/25 11:58:41;;;;;;;13.03;11.00;;;;;;;6.31;94.09;99170.72;4968954;28;20204;-30
2021/01/25 12:01:37;;;;;;;14.60;11.77;;;;;;;6.64;93.18;99166.97;4962393;28;20270;-31
2021/01/25 12:04:29;;;;;;;16.70;11.17;;;;;;;6.81;85.08;99172.75;4960685;29;20312;-31
2021/01/25 12:07:16;;;;;;;16.27;11.47;;;;;;;5.87;95.61;99177.06;4958762;29;20219;-30
2021/01/25 12:10:10;;;;;;;14.50;11.90;;;;;;;5.06;100.00;99181.81;4958948;29;20243;-30
2021/01/25 12:12:58;;;;;;;17.43;13.33;;;;;;;5.44;100.00;99176.50;4975987;28;20255;-30
2021/01/25 12:15:46;;;;;;;19.97;14.20;;;;;;;4.75;100.00;99175.13;4976539;28;20212;-30
2021/01/25 12:18:36;;;;;;;18.03;13.70;;;;;;;5.63;100.00;99177.22;4977536;28;20198;-30
2021/01/25 12:21:25;;;;;;;17.67;13.53;;;;;;;5.43;100.00;99177.34;4977607;28;20210;-30
2021/01/25 12:24:12;;;;;;;17.33;13.63;;;;;;;4.75;100.00;99175.13;4978292;28;20277;-30
2021/01/25 12:27:01;;;;;;;20.17;14.33;;;;;;;4.96;100.00;99182.72;4981183;28;20371;-30
2021/01/25 12:29:48;;;;;;;19.27;14.57;;;;;;;4.67;100.00;99187.06;4981035;28;20246;-30
2021/01/25 12:32:35;;;;;;;22.53;15.33;;;;;;;4.78;100.00;99191.31;4962206;29;20366;-30
2021/01/25 12:35:22;;;;;;;19.03;14.10;;;;;;;5.02;100.00;99192.06;4961453;29;20487;-30
2021/01/25 12:38:12;;;;;;;23.10;15.70;;;;;;;3.75;100.00;99192.28;4961828;29;20488;-30
2021/01/25 12:40:59;;;;;;;20.70;15.27;;;;;;;3.73;100.00;99188.00;4969994;28;20207;-30
2021/01/25 12:43:45;;;;;;;19.13;14.07;;;;;;;5.26;100.00;99199.66;4980566;28;20357;-30
2021/01/25 12:46:35;;;;;;;18.37;13.70;;;;;;;4.91;100.00;99192.13;4980566;28;20295;-30
2021/01/25 12:49:23;;;;;;;18.80;14.77;;;;;;;5.30;100.00;99198.78;4980717;28;20590;-30